Time;durP1;ratioP1;P1;durP2;ratioP2;P2;SDS_P1;SDS_P2;PMS_P1;PMS_P2;Temp;Humidity;BMP_temperature;BMP_pressure;BME280_temperature;BME280_humidity;BME280_pressure;Samples;Min_cycle;Max_cycle;Signal;HPM_P1;HPM_P2
2024/03/24 00:02:20;;;;;;;67.57;64.28;;;10.20;99.90;;;;;;5049037;28;20038;-81
2024/03/24 00:04:46;;;;;;;53.50;50.90;;;10.20;99.90;;;;;;5035795;28;20050;-81
2024/03/24 00:07:13;;;;;;;58.80;55.97;;;10.20;99.90;;;;;;5034562;28;20410;-81
2024/03/24 00:09:39;;;;;;;45.75;43.50;;;10.20;99.90;;;;;;5035130;28;20022;-81
2024/03/24 00:12:05;;;;;;;50.90;48.38;;;10.20;99.90;;;;;;5035032;28;20486;-81
2024/03/24 00:14:31;;;;;;;36.60;34.75;;;10.20;99.90;;;;;;5035394;28;20042;-81
2024/03/24 00:16:57;;;;;;;39.42;37.50;;;10.10;99.90;;;;;;5033725;28;20036;-80
2024/03/24 00:19:23;;;;;;;45.63;43.40;;;10.10;99.90;;;;;;5035275;28;20025;-81
2024/03/24 00:21:50;;;;;;;50.40;47.92;;;10.10;99.90;;;;;;5033629;28;20033;-81
2024/03/24 00:24:16;;;;;;;44.95;42.60;;;10.10;99.90;;;;;;5035317;28;20041;-81
2024/03/24 00:26:42;;;;;;;44.60;42.40;;;10.00;99.90;;;;;;5034321;28;20045;-81
2024/03/24 00:29:08;;;;;;;47.83;45.50;;;10.00;99.90;;;;;;5034972;28;20036;-81
2024/03/24 00:31:34;;;;;;;54.72;52.08;;;10.00;99.90;;;;;;5033808;28;20042;-81
2024/03/24 00:34:00;;;;;;;51.20;48.70;;;10.00;99.90;;;;;;5033943;28;20030;-81
2024/03/24 00:36:26;;;;;;;42.08;40.03;;;10.00;99.90;;;;;;5033325;28;20033;-81
2024/03/24 00:38:52;;;;;;;50.95;48.45;;;10.00;99.90;;;;;;5034821;28;20022;-81
2024/03/24 00:41:18;;;;;;;35.25;33.53;;;9.90;99.90;;;;;;5033143;28;20034;-78
2024/03/24 00:43:44;;;;;;;35.47;33.75;;;9.80;99.90;;;;;;5034798;28;20060;-81
2024/03/24 00:46:11;;;;;;;59.28;56.40;;;9.90;99.90;;;;;;5033131;28;20052;-81
2024/03/24 00:48:37;;;;;;;52.78;50.20;;;9.90;99.90;;;;;;5034434;28;20037;-81
2024/03/24 00:51:03;;;;;;;48.97;46.55;;;9.90;99.90;;;;;;5034226;28;20029;-81
2024/03/24 00:53:29;;;;;;;37.90;36.05;;;9.80;99.90;;;;;;5034403;28;20037;-82
2024/03/24 00:55:55;;;;;;;50.60;48.15;;;9.90;99.90;;;;;;5034043;28;20033;-82
2024/03/24 00:58:21;;;;;;;42.67;40.60;;;9.80;99.90;;;;;;5034024;28;20026;-81
2024/03/24 01:00:47;;;;;;;78.07;74.30;;;9.80;99.90;;;;;;5033908;28;20428;-81
2024/03/24 01:03:15;;;;;;;63.13;60.00;;;9.80;99.90;;;;;;5034463;28;20041;-80
2024/03/24 01:05:41;;;;;;;73.30;69.72;;;9.70;99.90;;;;;;5034057;28;20057;-80
2024/03/24 01:08:08;;;;;;;119.70;113.80;;;9.70;99.90;;;;;;5033720;28;20038;-80
2024/03/24 01:10:37;;;;;;;174.27;165.52;;;9.70;99.90;;;;;;5034161;28;20394;-78
2024/03/24 01:13:03;;;;;;;71.03;67.53;;;9.70;99.90;;;;;;5030930;28;20036;-77
2024/03/24 01:15:31;;;;;;;119.20;113.22;;;9.60;99.90;;;;;;5033578;28;20037;-78
2024/03/24 01:17:57;;;;;;;116.90;111.15;;;9.60;99.90;;;;;;5034212;28;20041;-81
2024/03/24 01:20:23;;;;;;;59.08;56.20;;;9.60;99.90;;;;;;5033699;28;20041;-80
2024/03/24 01:22:49;;;;;;;72.00;68.43;;;9.40;99.90;;;;;;5033565;28;20107;-80
2024/03/24 01:25:15;;;;;;;131.20;124.60;;;9.40;99.90;;;;;;5033427;28;20029;-80
2024/03/24 01:27:41;;;;;;;61.72;58.70;;;9.40;99.90;;;;;;5033366;28;20482;-79
2024/03/24 01:30:09;;;;;;;55.60;52.88;;;9.30;99.90;;;;;;5033767;28;20036;-79
2024/03/24 01:32:35;;;;;;;53.47;50.88;;;9.40;99.90;;;;;;5033992;28;20408;-81
2024/03/24 01:35:01;;;;;;;51.90;49.33;;;9.20;99.90;;;;;;5033761;28;20029;-81
2024/03/24 01:37:27;;;;;;;58.88;55.90;;;9.20;99.90;;;;;;5032025;28;20375;-81
2024/03/24 01:39:53;;;;;;;41.42;39.45;;;9.10;99.90;;;;;;5033653;28;20033;-80
2024/03/24 01:42:20;;;;;;;53.33;50.70;;;9.00;99.90;;;;;;5032569;28;20517;-81
2024/03/24 01:44:46;;;;;;;40.97;38.88;;;9.10;99.90;;;;;;5033591;28;20037;-80
2024/03/24 01:47:12;;;;;;;66.20;62.88;;;9.10;99.90;;;;;;5047823;28;20049;-81
2024/03/24 01:49:39;;;;;;;56.17;53.42;;;9.10;99.90;;;;;;5032808;28;20037;-80
2024/03/24 01:52:06;;;;;;;66.05;62.80;;;9.10;99.90;;;;;;5031741;28;20041;-81
2024/03/24 01:54:34;;;;;;;38.88;37.00;;;9.20;99.90;;;;;;5033194;28;20033;-80
2024/03/24 01:57:01;;;;;;;38.50;36.63;;;9.20;99.90;;;;;;5032349;28;20045;-80
2024/03/24 01:59:27;;;;;;;52.22;49.65;;;9.30;99.90;;;;;;5033132;28;20048;-80
2024/03/24 02:01:54;;;;;;;50.15;47.67;;;9.20;99.90;;;;;;5032139;28;20041;-80
2024/03/24 02:04:20;;;;;;;48.42;46.05;;;9.20;99.90;;;;;;5032011;28;20041;-80
2024/03/24 02:06:46;;;;;;;35.40;33.67;;;9.20;99.90;;;;;;5032152;28;20041;-75
2024/03/24 02:09:12;;;;;;;41.22;39.20;;;9.20;99.90;;;;;;5031633;28;20395;-75
2024/03/24 02:11:38;;;;;;;41.20;39.22;;;9.20;99.90;;;;;;5031728;28;20021;-75
2024/03/24 02:14:04;;;;;;;42.08;40.00;;;9.20;99.90;;;;;;5048013;28;20406;-75
2024/03/24 02:16:30;;;;;;;90.25;85.82;;;9.10;99.90;;;;;;5031834;28;20025;-75
2024/03/24 02:18:56;;;;;;;48.40;46.05;;;9.20;99.90;;;;;;5032727;28;20387;-75
2024/03/24 02:21:23;;;;;;;42.20;40.13;;;9.20;99.90;;;;;;5030679;28;20044;-75
2024/03/24 02:23:49;;;;;;;43.45;41.35;;;9.20;99.90;;;;;;5032563;28;20025;-75
2024/03/24 02:26:16;;;;;;;53.45;50.80;;;9.20;99.90;;;;;;5047374;28;20053;-75
2024/03/24 02:28:42;;;;;;;63.15;60.08;;;9.20;99.90;;;;;;5032447;28;20505;-74
2024/03/24 02:31:08;;;;;;;54.55;51.92;;;9.20;99.90;;;;;;5032009;28;20040;-75
2024/03/24 02:33:34;;;;;;;45.10;42.90;;;9.10;99.90;;;;;;5032522;28;20040;-74
2024/03/24 02:36:00;;;;;;;28.73;27.33;;;9.10;99.90;;;;;;5031969;28;20037;-74
2024/03/24 02:38:26;;;;;;;28.63;27.20;;;9.10;99.90;;;;;;5032358;28;20037;-75
2024/03/24 02:40:52;;;;;;;29.83;28.38;;;9.10;99.90;;;;;;5031446;28;20505;-75
2024/03/24 02:43:18;;;;;;;44.75;42.58;;;9.10;99.90;;;;;;5032390;28;20109;-75
2024/03/24 02:45:44;;;;;;;27.40;26.10;;;9.10;99.90;;;;;;5031453;28;20433;-74
2024/03/24 02:48:11;;;;;;;34.22;32.58;;;9.00;99.90;;;;;;5032141;28;20038;-74
2024/03/24 02:50:37;;;;;;;40.38;38.38;;;8.90;99.90;;;;;;5030199;28;20025;-75
2024/03/24 02:53:04;;;;;;;118.10;112.25;;;8.90;99.90;;;;;;5032407;28;20045;-74
2024/03/24 02:55:30;;;;;;;70.90;67.45;;;8.90;99.90;;;;;;5031510;28;20398;-74
2024/03/24 02:57:56;;;;;;;50.28;47.80;;;8.90;99.90;;;;;;5032134;28;20045;-74
2024/03/24 03:00:22;;;;;;;78.85;74.57;;;8.90;99.90;;;;;;5030046;28;20478;-75
2024/03/24 03:02:48;;;;;;;83.07;79.03;;;8.90;99.90;;;;;;5023138;28;20036;-74
2024/03/24 03:05:14;;;;;;;44.28;42.10;;;8.90;99.90;;;;;;5024911;28;20470;-75
2024/03/24 03:07:42;;;;;;;36.25;34.47;;;9.00;99.90;;;;;;5030276;28;20040;-75
2024/03/24 03:10:08;;;;;;;47.15;44.83;;;9.00;99.90;;;;;;5028855;28;20068;-74
2024/03/24 03:12:37;;;;;;;56.25;53.50;;;9.00;99.90;;;;;;5030443;28;20036;-74
2024/03/24 03:15:04;;;;;;;57.17;54.38;;;9.00;99.90;;;;;;5030669;28;20033;-74
2024/03/24 03:17:31;;;;;;;79.03;75.20;;;9.00;99.90;;;;;;5030133;28;20040;-74
2024/03/24 03:19:59;;;;;;;54.88;52.17;;;9.00;99.90;;;;;;5029019;28;20030;-75
2024/03/24 03:22:25;;;;;;;48.88;46.50;;;9.00;99.90;;;;;;5031069;28;20057;-75
2024/03/24 03:24:51;;;;;;;36.65;34.88;;;9.00;99.90;;;;;;5030070;28;20462;-75
2024/03/24 03:27:17;;;;;;;36.08;34.33;;;8.90;99.90;;;;;;5028800;28;20045;-74
2024/03/24 03:29:43;;;;;;;47.60;45.30;;;8.90;99.90;;;;;;5030608;28;20398;-74
2024/03/24 03:32:09;;;;;;;42.83;40.75;;;8.90;99.90;;;;;;5029792;28;20049;-74
2024/03/24 03:34:35;;;;;;;32.53;30.95;;;9.00;99.90;;;;;;5030717;28;20506;-74
2024/03/24 03:37:01;;;;;;;39.08;37.17;;;9.00;99.90;;;;;;5030941;28;20726;-75
2024/03/24 03:39:27;;;;;;;46.13;43.88;;;8.90;99.90;;;;;;5031436;28;20045;-74
2024/03/24 03:41:53;;;;;;;56.53;53.80;;;8.90;99.90;;;;;;5031372;28;20036;-74
2024/03/24 03:44:19;;;;;;;44.58;42.42;;;8.90;99.90;;;;;;5030469;28;20053;-75
2024/03/24 03:46:46;;;;;;;41.08;39.08;;;8.90;99.90;;;;;;5031037;28;20029;-74
2024/03/24 03:49:14;;;;;;;62.53;59.45;;;8.80;99.90;;;;;;5031712;28;20045;-74
2024/03/24 03:51:42;;;;;;;56.60;53.72;;;8.80;99.90;;;;;;5029639;28;20073;-81
2024/03/24 03:54:12;;;;;;;41.08;38.92;;;8.80;99.90;;;;;;5031474;28;20030;-81
2024/03/24 03:56:38;;;;;;;46.28;44.03;;;8.80;99.90;;;;;;5031395;28;20056;-81
2024/03/24 03:59:05;;;;;;;34.42;32.78;;;8.70;99.90;;;;;;5032266;28;20045;-81
2024/03/24 04:01:31;;;;;;;72.55;69.00;;;8.70;99.90;;;;;;5031008;28;20399;-81
2024/03/24 04:03:59;;;;;;;51.92;49.45;;;8.70;99.90;;;;;;5031660;28;20038;-80
2024/03/24 04:06:28;;;;;;;35.00;33.30;;;8.70;99.90;;;;;;5031560;28;20037;-81
2024/03/24 04:08:54;;;;;;;40.88;38.92;;;8.70;99.90;;;;;;5031197;28;20045;-80
2024/03/24 04:11:20;;;;;;;38.22;36.40;;;8.70;99.90;;;;;;5032160;28;20044;-80
2024/03/24 04:13:48;;;;;;;55.33;52.63;;;8.60;99.90;;;;;;5035181;28;20033;-81
2024/03/24 04:16:16;;;;;;;37.33;35.25;;;8.60;99.90;;;;;;5034265;28;20061;-81
2024/03/24 04:18:46;;;;;;;45.75;43.53;;;8.60;99.90;;;;;;5035368;28;20040;-81
2024/03/24 04:21:12;;;;;;;79.82;75.90;;;8.60;99.90;;;;;;5033834;28;20045;-81
2024/03/24 04:23:38;;;;;;;79.20;75.40;;;8.60;99.90;;;;;;5033378;28;20026;-81
2024/03/24 04:26:05;;;;;;;51.28;48.83;;;8.50;99.90;;;;;;5033428;28;20033;-81
2024/03/24 04:28:31;;;;;;;34.20;32.55;;;8.60;99.90;;;;;;5033836;28;20371;-81
2024/03/24 04:30:58;;;;;;;46.33;44.05;;;8.50;99.90;;;;;;5034120;28;20409;-81
2024/03/24 04:33:25;;;;;;;44.10;41.97;;;8.60;99.90;;;;;;5034733;28;20044;-81
2024/03/24 04:35:51;;;;;;;36.08;34.35;;;8.50;99.90;;;;;;5034471;28;20037;-81
2024/03/24 04:38:17;;;;;;;67.28;64.05;;;8.40;99.90;;;;;;5034315;28;20057;-81
2024/03/24 04:40:44;;;;;;;34.85;33.17;;;8.40;99.90;;;;;;5049291;28;20048;-81
2024/03/24 04:43:13;;;;;;;51.20;48.72;;;8.40;99.90;;;;;;5034029;28;20418;-81
2024/03/24 04:45:43;;;;;;;38.78;36.92;;;8.40;99.90;;;;;;5028591;28;20034;-82
2024/03/24 04:48:11;;;;;;;44.47;42.33;;;8.40;99.90;;;;;;5015038;28;20056;-82
2024/03/24 04:50:37;;;;;;;52.33;49.83;;;8.40;99.90;;;;;;5014239;28;20367;-82
2024/03/24 04:53:04;;;;;;;40.03;38.10;;;8.30;99.90;;;;;;5008733;28;20060;-81
2024/03/24 04:55:30;;;;;;;34.20;32.55;;;8.30;99.90;;;;;;5018602;28;20037;-76
2024/03/24 04:57:56;;;;;;;39.42;37.50;;;8.20;99.90;;;;;;5031578;28;20041;-76
2024/03/24 05:00:25;;;;;;;33.42;31.80;;;8.30;99.90;;;;;;5021483;28;20032;-77
2024/03/24 05:02:51;;;;;;;45.15;42.95;;;8.30;99.90;;;;;;5034201;28;20052;-76
2024/03/24 05:05:17;;;;;;;51.05;48.60;;;8.20;99.90;;;;;;5033773;28;20025;-76
2024/03/24 05:07:47;;;;;;;55.90;53.15;;;8.30;99.90;;;;;;5034166;28;20490;-76
2024/03/24 05:10:13;;;;;;;67.57;64.23;;;8.30;99.90;;;;;;5049821;28;20033;-77
2024/03/24 05:12:39;;;;;;;59.05;56.20;;;8.30;99.90;;;;;;5033919;28;20502;-75
2024/03/24 05:15:06;;;;;;;62.05;58.80;;;8.30;99.90;;;;;;5032106;28;20030;-76
2024/03/24 05:17:32;;;;;;;52.10;49.53;;;8.40;99.90;;;;;;5014812;28;20042;-76
2024/03/24 05:22:34;;;;;;;38.72;36.88;;;8.30;99.90;;;;;;4322543;28;20133;-79
2024/03/24 05:25:00;;;;;;;34.15;32.53;;;8.30;99.90;;;;;;5013631;28;20401;-80
2024/03/24 05:27:26;;;;;;;34.42;32.78;;;8.30;99.90;;;;;;5014123;28;20029;-80
2024/03/24 05:29:52;;;;;;;41.05;39.08;;;8.30;99.90;;;;;;5013834;28;20493;-80
2024/03/24 05:32:18;;;;;;;47.97;45.65;;;8.30;99.90;;;;;;5031065;28;20029;-80
2024/03/24 05:34:45;;;;;;;58.70;55.83;;;8.40;99.90;;;;;;5033459;28;20033;-80
2024/03/24 05:37:11;;;;;;;44.20;42.10;;;8.50;99.90;;;;;;5032966;28;20042;-79
2024/03/24 05:39:37;;;;;;;45.53;43.35;;;8.50;99.90;;;;;;5013881;28;20375;-80
2024/03/24 05:42:03;;;;;;;35.08;33.40;;;8.50;99.90;;;;;;5013846;28;20041;-80
2024/03/24 05:44:29;;;;;;;49.25;46.88;;;8.50;99.90;;;;;;5013963;28;20022;-80
2024/03/24 05:46:55;;;;;;;40.70;38.75;;;8.50;99.90;;;;;;5027772;28;20040;-80
2024/03/24 05:49:21;;;;;;;32.30;30.77;;;8.40;99.90;;;;;;5033565;28;20056;-79
2024/03/24 05:51:47;;;;;;;27.27;25.98;;;8.40;99.90;;;;;;5031481;28;20436;-80
2024/03/24 05:54:13;;;;;;;23.90;22.75;;;8.40;99.90;;;;;;5040862;28;20025;-80
2024/03/24 05:56:39;;;;;;;36.75;35.00;;;8.30;99.90;;;;;;5034183;28;20477;-80
2024/03/24 05:59:05;;;;;;;92.53;88.03;;;8.30;99.90;;;;;;5033566;28;20036;-78
2024/03/24 06:01:31;;;;;;;30.35;28.73;;;8.30;99.90;;;;;;5032711;28;20477;-79
2024/03/24 06:03:58;;;;;;;31.38;29.90;;;8.30;99.90;;;;;;5036274;28;20029;-76
2024/03/24 06:06:24;;;;;;;50.70;48.33;;;8.30;99.90;;;;;;5033996;28;20048;-78
2024/03/24 06:08:51;;;;;;;24.17;23.08;;;8.30;99.90;;;;;;5033650;28;20049;-79
2024/03/24 06:11:17;;;;;;;28.13;26.80;;;8.30;99.90;;;;;;5033505;28;20045;-78
2024/03/24 06:13:43;;;;;;;37.88;36.10;;;8.30;99.90;;;;;;5038147;28;20021;-78
2024/03/24 06:16:10;;;;;;;60.55;57.60;;;8.30;99.90;;;;;;5052565;28;20033;-79
2024/03/24 06:18:36;;;;;;;24.08;22.95;;;8.30;99.90;;;;;;5053170;28;20052;-79
2024/03/24 06:21:03;;;;;;;24.85;23.70;;;8.30;99.90;;;;;;5052828;28;20037;-78
2024/03/24 06:23:29;;;;;;;38.40;36.35;;;8.30;99.90;;;;;;5042298;28;20466;-78
2024/03/24 06:25:55;;;;;;;21.02;20.05;;;8.30;99.90;;;;;;5052591;28;20037;-79
2024/03/24 06:28:21;;;;;;;41.60;39.65;;;8.30;99.90;;;;;;5052412;28;20037;-78
2024/03/24 06:30:52;;;;;;;38.42;36.63;;;8.30;99.90;;;;;;5033804;28;20044;-79
2024/03/24 06:33:18;;;;;;;63.22;60.22;;;8.30;99.90;;;;;;5049056;28;20049;-78
2024/03/24 06:35:44;;;;;;;27.42;26.15;;;8.30;99.90;;;;;;5051355;28;20132;-79
2024/03/24 06:38:10;;;;;;;34.35;32.75;;;8.40;99.90;;;;;;5052709;28;20029;-78
2024/03/24 06:40:36;;;;;;;36.15;34.47;;;8.40;99.90;;;;;;5041483;28;20052;-79
2024/03/24 06:43:03;;;;;;;26.13;24.83;;;8.40;99.90;;;;;;5032648;28;20034;-78
2024/03/24 06:45:34;;;;;;;31.05;29.60;;;8.50;99.90;;;;;;5032618;28;20033;-79
2024/03/24 06:48:04;;;;;;;26.35;25.10;;;8.80;99.90;;;;;;5047300;28;20049;-78
2024/03/24 06:50:31;;;;;;;30.37;28.97;;;9.00;99.90;;;;;;5035339;28;20048;-79
2024/03/24 06:52:57;;;;;;;30.83;29.42;;;9.20;99.90;;;;;;5039900;28;20033;-79
2024/03/24 06:55:24;;;;;;;38.45;36.40;;;9.30;99.90;;;;;;5033829;28;20029;-78
2024/03/24 06:57:50;;;;;;;33.55;31.98;;;9.50;99.90;;;;;;5037127;28;20037;-78
2024/03/24 07:00:19;;;;;;;40.05;38.17;;;9.60;99.90;;;;;;5032354;28;20030;-78
2024/03/24 07:02:46;;;;;;;37.67;35.88;;;9.80;99.90;;;;;;5051807;28;20021;-78
2024/03/24 07:05:12;;;;;;;25.55;24.35;;;9.90;99.90;;;;;;5034939;28;20033;-78
2024/03/24 07:07:39;;;;;;;39.90;37.88;;;9.90;99.90;;;;;;5052374;28;20033;-78
2024/03/24 07:10:05;;;;;;;64.50;61.45;;;10.00;99.90;;;;;;5032377;28;20492;-77
2024/03/24 07:12:32;;;;;;;55.70;53.05;;;9.80;99.90;;;;;;5050985;28;20025;-78
2024/03/24 07:14:58;;;;;;;53.85;51.30;;;9.80;99.90;;;;;;5052078;28;20040;-78
2024/03/24 07:17:24;;;;;;;64.35;61.28;;;9.80;99.90;;;;;;5033362;28;20034;-77
2024/03/24 07:19:50;;;;;;;45.67;43.50;;;9.60;99.90;;;;;;5032251;28;20029;-78
2024/03/24 07:22:16;;;;;;;41.97;39.97;;;9.50;99.90;;;;;;5048751;28;20378;-78
2024/03/24 07:24:42;;;;;;;43.63;41.55;;;9.50;99.90;;;;;;5012558;28;20042;-78
2024/03/24 07:27:08;;;;;;;43.50;41.30;;;9.50;99.90;;;;;;5047841;28;20035;-78
2024/03/24 07:29:34;;;;;;;35.53;33.88;;;9.50;99.90;;;;;;5043868;28;20038;-79
2024/03/24 07:32:00;;;;;;;33.53;31.98;;;9.50;99.90;;;;;;5030963;28;20060;-78
2024/03/24 07:34:27;;;;;;;36.75;35.03;;;9.50;99.90;;;;;;5031751;28;20037;-78
2024/03/24 07:36:53;;;;;;;46.78;44.53;;;9.60;99.90;;;;;;5046003;28;20037;-78
2024/03/24 07:39:19;;;;;;;47.92;45.63;;;9.70;99.90;;;;;;5051766;28;20040;-78
2024/03/24 07:41:46;;;;;;;56.90;54.20;;;9.70;99.90;;;;;;5036121;28;20030;-78
2024/03/24 07:44:12;;;;;;;36.55;34.83;;;9.70;99.90;;;;;;5032147;28;20021;-73
2024/03/24 07:46:39;;;;;;;33.88;32.28;;;9.70;99.90;;;;;;5044393;28;20064;-77
2024/03/24 07:49:05;;;;;;;27.58;26.30;;;9.70;99.90;;;;;;5035347;28;20507;-78
2024/03/24 07:51:31;;;;;;;29.52;28.13;;;9.70;99.90;;;;;;5038804;28;20033;-78
2024/03/24 07:53:57;;;;;;;49.90;47.47;;;9.80;99.90;;;;;;5035688;28;20037;-77
2024/03/24 07:56:23;;;;;;;75.35;71.72;;;9.90;99.90;;;;;;5036349;28;20049;-77
2024/03/24 07:58:49;;;;;;;87.07;82.88;;;10.00;99.90;;;;;;5023040;28;20038;-78
2024/03/24 08:01:15;;;;;;;89.13;84.85;;;10.00;99.90;;;;;;5040975;28;20044;-77
2024/03/24 08:03:41;;;;;;;77.10;73.30;;;10.00;99.90;;;;;;5035438;28;20034;-78
2024/03/24 08:06:09;;;;;;;54.03;51.45;;;10.10;99.90;;;;;;5038461;28;20029;-75
2024/03/24 08:08:35;;;;;;;37.40;35.65;;;10.10;99.90;;;;;;5040173;28;20045;-74
2024/03/24 08:11:01;;;;;;;44.72;42.60;;;10.10;99.90;;;;;;5055004;28;20036;-75
2024/03/24 08:13:27;;;;;;;29.20;27.85;;;10.20;99.90;;;;;;5055377;28;20052;-75
2024/03/24 08:15:53;;;;;;;24.15;23.05;;;10.00;99.90;;;;;;5046965;28;20434;-75
2024/03/24 08:18:20;;;;;;;20.65;19.70;;;10.00;99.90;;;;;;5035468;28;20033;-75
2024/03/24 08:20:46;;;;;;;29.83;28.42;;;10.20;99.90;;;;;;5039846;28;20036;-75
2024/03/24 08:23:13;;;;;;;38.90;37.08;;;10.30;99.90;;;;;;5047154;28;20045;-75
2024/03/24 08:25:40;;;;;;;47.55;45.33;;;10.40;99.90;;;;;;5038959;28;20051;-75
2024/03/24 08:28:06;;;;;;;32.38;30.85;;;10.50;99.90;;;;;;5054747;28;20045;-74
2024/03/24 08:30:32;;;;;;;49.42;47.08;;;10.60;99.90;;;;;;5039740;28;21088;-75
2024/03/24 08:32:58;;;;;;;23.42;22.33;;;10.70;99.90;;;;;;5052548;28;20045;-75
2024/03/24 08:35:24;;;;;;;54.00;51.45;;;10.70;99.90;;;;;;5036722;28;20030;-75
2024/03/24 08:37:51;;;;;;;55.20;52.58;;;10.90;99.90;;;;;;5054913;28;20381;-75
2024/03/24 08:40:17;;;;;;;72.00;68.60;;;11.00;99.90;;;;;;5054473;28;20047;-75
2024/03/24 08:42:44;;;;;;;42.53;40.53;;;11.20;99.90;;;;;;5038919;28;20025;-75
2024/03/24 08:45:10;;;;;;;40.88;38.95;;;11.30;99.90;;;;;;5045432;28;20044;-75
2024/03/24 08:47:36;;;;;;;207.35;197.02;;;11.60;99.90;;;;;;5034913;28;20046;-74
2024/03/24 08:50:03;;;;;;;44.17;42.08;;;11.80;99.90;;;;;;5044631;28;20041;-75
2024/03/24 08:52:29;;;;;;;42.10;40.00;;;12.00;99.90;;;;;;5035868;28;20053;-75
2024/03/24 08:54:56;;;;;;;66.40;63.05;;;12.20;99.90;;;;;;5034601;28;20029;-80
2024/03/24 08:57:22;;;;;;;111.45;105.78;;;12.30;99.90;;;;;;5038568;28;20032;-76
2024/03/24 08:59:48;;;;;;;34.08;32.50;;;12.40;99.90;;;;;;5037609;28;20029;-75
2024/03/24 09:02:17;;;;;;;52.65;49.88;;;12.50;99.90;;;;;;5033993;28;20041;-75
2024/03/24 09:04:43;;;;;;;48.17;45.90;;;12.70;99.90;;;;;;5034541;28;20033;-75
2024/03/24 09:07:09;;;;;;;596.45;341.75;;;12.90;99.90;;;;;;5033801;28;20048;-75
2024/03/24 09:09:35;;;;;;;1999.90;999.90;;;13.00;99.90;;;;;;5034278;28;20056;-75
2024/03/24 09:12:01;;;;;;;1999.90;999.90;;;13.00;99.90;;;;;;5048897;28;20029;-76
2024/03/24 09:14:27;;;;;;;1999.90;999.90;;;12.90;99.90;;;;;;5037501;28;20363;-75
2024/03/24 09:16:53;;;;;;;1999.90;999.90;;;13.00;99.90;;;;;;5033102;28;20025;-76
2024/03/24 09:19:19;;;;;;;1999.90;999.90;;;13.10;99.90;;;;;;5042197;28;20029;-75
2024/03/24 09:21:45;;;;;;;1999.90;999.90;;;13.10;99.90;;;;;;5034456;28;20484;-75
2024/03/24 09:24:12;;;;;;;1999.90;999.90;;;13.20;99.90;;;;;;5033187;28;20033;-75
2024/03/24 09:26:38;;;;;;;1999.90;999.90;;;13.40;99.90;;;;;;5035271;28;20025;-75
2024/03/24 09:29:04;;;;;;;1999.90;999.90;;;13.40;99.90;;;;;;5026589;28;20057;-76
2024/03/24 09:31:30;;;;;;;1999.90;999.90;;;13.40;99.90;;;;;;5037838;28;20361;-73
2024/03/24 09:33:56;;;;;;;1999.90;999.90;;;13.60;99.90;;;;;;5028950;28;20037;-76
2024/03/24 09:36:22;;;;;;;1999.90;999.90;;;13.60;99.90;;;;;;5043035;28;20032;-81
2024/03/24 09:38:48;;;;;;;1999.90;999.90;;;13.80;99.90;;;;;;5033591;28;20030;-77
2024/03/24 09:41:15;;;;;;;1999.90;999.90;;;13.90;99.90;;;;;;5037081;28;20040;-77
2024/03/24 09:43:41;;;;;;;1999.90;999.90;;;14.00;99.90;;;;;;5032025;28;20029;-76
2024/03/24 09:46:07;;;;;;;1999.90;999.90;;;14.10;99.90;;;;;;5006911;28;20041;-76
2024/03/24 09:48:33;;;;;;;1999.90;999.90;;;14.00;99.90;;;;;;5031352;28;20025;-76
2024/03/24 09:50:59;;;;;;;1999.90;999.90;;;14.10;99.90;;;;;;5039125;28;20389;-76
2024/03/24 09:53:25;;;;;;;1999.90;999.90;;;14.20;99.90;;;;;;5064594;28;20029;-77
2024/03/24 09:55:51;;;;;;;1999.90;999.90;;;14.10;99.90;;;;;;5031885;28;20029;-77
2024/03/24 09:58:18;;;;;;;1999.90;999.90;;;14.10;99.90;;;;;;5008551;28;20497;-76
2024/03/24 10:00:45;;;;;;;1999.90;999.90;;;13.90;99.90;;;;;;5036775;28;20040;-77
2024/03/24 10:03:11;;;;;;;1999.90;999.90;;;13.70;99.90;;;;;;5047036;28;20060;-77
2024/03/24 10:05:37;;;;;;;1999.90;999.90;;;13.70;99.90;;;;;;5020324;28;20036;-77
2024/03/24 10:08:03;;;;;;;1999.90;999.90;;;13.90;99.90;;;;;;5043001;28;20664;-77
2024/03/24 10:10:30;;;;;;;1999.90;999.90;;;14.00;99.90;;;;;;5035443;28;20049;-77
2024/03/24 10:12:57;;;;;;;1999.90;999.90;;;14.00;99.90;;;;;;5067267;28;20104;-77
2024/03/24 10:15:25;;;;;;;1999.90;999.90;;;13.80;99.90;;;;;;5035354;28;20044;-77
2024/03/24 10:18:07;;;;;;;1999.90;999.90;;;13.60;99.90;;;;;;5046394;28;20666;-77
2024/03/24 10:20:34;;;;;;;1999.90;999.90;;;13.50;99.90;;;;;;5034830;28;20044;-78
2024/03/24 10:23:00;;;;;;;1999.90;999.90;;;13.60;99.90;;;;;;5045918;28;20378;-77
2024/03/24 10:25:28;;;;;;;1999.90;999.90;;;13.40;99.90;;;;;;5042862;28;20040;-76
2024/03/24 10:27:54;;;;;;;1999.90;999.90;;;13.30;99.90;;;;;;5038793;28;20053;-77
2024/03/24 10:30:20;;;;;;;1999.90;999.90;;;13.30;99.90;;;;;;5032642;28;20042;-76
2024/03/24 10:32:47;;;;;;;1999.90;999.90;;;13.40;99.90;;;;;;5037212;28;20041;-77
2024/03/24 10:35:16;;;;;;;1999.90;999.90;;;13.30;99.90;;;;;;5047333;28;20045;-76
2024/03/24 10:37:42;;;;;;;1999.90;999.90;;;13.20;99.90;;;;;;5034577;28;20037;-76
2024/03/24 10:40:16;;;;;;;1999.90;999.90;;;13.30;99.90;;;;;;5051740;28;20401;-76
2024/03/24 10:42:52;;;;;;;1999.90;999.90;;;13.20;99.90;;;;;;5021153;28;20044;-76
2024/03/24 10:45:25;;;;;;;1999.90;999.90;;;13.40;99.90;;;;;;5050141;28;20036;-76
2024/03/24 10:48:04;;;;;;;1999.90;999.90;;;13.40;99.90;;;;;;5010808;28;20038;-76
2024/03/24 10:50:30;;;;;;;1999.90;999.90;;;13.50;99.90;;;;;;5017062;28;20363;-76
2024/03/24 10:52:57;;;;;;;1999.90;999.90;;;13.60;99.90;;;;;;5034518;28;20033;-76
2024/03/24 10:55:23;;;;;;;1999.90;999.90;;;13.80;99.90;;;;;;5032596;28;20045;-76
2024/03/24 10:57:49;;;;;;;1999.90;999.90;;;14.00;99.90;;;;;;5031366;28;20373;-69
2024/03/24 11:00:16;;;;;;;1999.90;999.90;;;14.20;99.90;;;;;;5034402;28;20025;-73
2024/03/24 11:02:42;;;;;;;1999.90;999.90;;;14.40;99.90;;;;;;5030174;28;20037;-74
2024/03/24 11:05:09;;;;;;;1999.90;999.90;;;14.60;99.90;;;;;;5037980;28;20029;-72
2024/03/24 11:07:38;;;;;;;1999.90;999.90;;;14.90;99.90;;;;;;5050158;28;20041;-74
2024/03/24 11:10:05;;;;;;;1999.90;999.90;;;15.20;99.90;;;;;;5033433;28;20045;-74
2024/03/24 11:12:35;;;;;;;1999.90;999.90;;;15.20;99.90;;;;;;5030517;28;20036;-74
2024/03/24 11:15:01;;;;;;;1999.90;999.90;;;15.10;99.90;;;;;;5030498;28;20032;-72
2024/03/24 11:17:27;;;;;;;1999.90;999.90;;;15.20;99.90;;;;;;5034757;28;20037;-74
2024/03/24 11:19:54;;;;;;;1999.90;999.90;;;15.40;99.90;;;;;;5032162;28;20056;-74
2024/03/24 11:22:42;;;;;;;1999.90;999.90;;;15.70;99.90;;;;;;5029404;28;20053;-74
2024/03/24 11:25:08;;;;;;;1999.90;999.90;;;15.80;99.90;;;;;;5033584;28;20052;-72
2024/03/24 11:27:38;;;;;;;1999.90;999.90;;;15.70;99.90;;;;;;5054581;28;20045;-77
2024/03/24 11:30:05;;;;;;;1999.90;999.90;;;15.90;99.90;;;;;;5035040;28;20042;-72
2024/03/24 11:32:55;;;;;;;1999.90;999.90;;;15.80;99.90;;;;;;5034497;28;20468;-73
2024/03/24 11:35:25;;;;;;;1999.90;999.90;;;15.60;99.90;;;;;;5036524;28;20036;-73
2024/03/24 11:37:52;;;;;;;1999.90;999.90;;;15.50;99.90;;;;;;5036288;28;20397;-74
2024/03/24 11:40:21;;;;;;;1999.90;999.90;;;15.70;99.90;;;;;;5033273;28;20030;-73
2024/03/24 11:42:54;;;;;;;1999.90;999.90;;;15.40;99.90;;;;;;5030864;28;20512;-72
2024/03/24 11:45:27;;;;;;;1999.90;999.90;;;15.30;99.90;;;;;;5033118;28;20018;-72
2024/03/24 11:48:24;;;;;;;1999.90;999.90;;;15.40;99.90;;;;;;5045933;28;20041;-72
2024/03/24 11:50:50;;;;;;;1999.90;999.90;;;15.20;99.90;;;;;;5036050;28;20060;-71
2024/03/24 11:53:18;;;;;;;1999.90;999.90;;;14.50;99.90;;;;;;5054865;28;20025;-71
2024/03/24 11:55:44;;;;;;;1999.90;999.90;;;14.20;99.90;;;;;;5041718;28;20524;-71
2024/03/24 11:58:11;;;;;;;1999.90;999.90;;;14.30;99.90;;;;;;5036282;28;20033;-72
2024/03/24 12:00:37;;;;;;;1999.90;999.90;;;14.30;99.90;;;;;;5032426;28;20037;-74
2024/03/24 12:03:03;;;;;;;1999.90;999.90;;;14.40;99.90;;;;;;5033879;28;20033;-72
2024/03/24 12:05:29;;;;;;;1999.90;999.90;;;14.50;99.90;;;;;;5051776;28;20042;-73
2024/03/24 12:07:55;;;;;;;1999.90;999.90;;;14.60;99.90;;;;;;5014934;28;20044;-73
2024/03/24 12:10:21;;;;;;;1999.90;999.90;;;14.70;99.90;;;;;;5016430;28;20474;-73
2024/03/24 12:12:48;;;;;;;1999.90;999.90;;;14.80;99.90;;;;;;5033403;28;20037;-72
2024/03/24 12:15:14;;;;;;;1999.90;999.90;;;14.80;99.90;;;;;;5033246;28;20359;-72
2024/03/24 12:17:40;;;;;;;1999.90;999.90;;;14.90;99.90;;;;;;5035958;28;20022;-74
2024/03/24 12:20:10;;;;;;;1999.90;999.90;;;14.90;99.90;;;;;;5034549;28;20038;-75
2024/03/24 12:22:38;;;;;;;1999.90;999.90;;;15.10;99.90;;;;;;5016078;28;20050;-74
2024/03/24 12:25:04;;;;;;;1999.90;999.90;;;15.30;99.90;;;;;;5040991;28;20052;-74